createdAt,value
2022-08-17T08:49:17.067Z,47.70
2022-08-17T08:51:57.743Z,46.80
2022-08-17T08:55:08.707Z,47.70
2022-08-17T08:58:03.738Z,46.00
2022-08-17T09:00:51.185Z,46.00
2022-08-17T09:04:23.411Z,44.70
2022-08-17T09:07:12.985Z,43.50
2022-08-17T09:09:59.478Z,42.50
2022-08-17T09:12:35.270Z,41.40
2022-08-17T09:15:12.966Z,40.70
2022-08-17T09:17:53.174Z,41.30
2022-08-17T09:20:36.422Z,40.40
2022-08-17T09:23:08.569Z,39.60
2022-08-17T09:25:58.301Z,38.50
2022-08-17T09:28:39.041Z,37.30
2022-08-17T09:31:15.997Z,36.80
2022-08-17T09:33:47.078Z,37.00
2022-08-17T09:36:23.264Z,36.90
2022-08-17T09:39:16.167Z,37.00
2022-08-17T09:41:52.958Z,37.10
2022-08-17T09:44:52.165Z,36.30
2022-08-17T09:47:42.159Z,36.10
2022-08-17T09:51:03.440Z,35.90
2022-08-17T09:53:11.436Z,35.60
2022-08-17T09:55:53.452Z,36.70
2022-08-17T09:58:29.388Z,35.90
2022-08-17T10:01:23.806Z,35.80
2022-08-17T10:04:02.347Z,35.90
2022-08-17T10:06:35.520Z,35.70
2022-08-17T10:09:23.728Z,35.00
2022-08-17T10:12:20.218Z,34.40
2022-08-17T10:15:09.770Z,35.30
2022-08-17T10:18:09.284Z,36.60
2022-08-17T10:21:26.655Z,36.30
2022-08-17T10:24:27.319Z,35.90
2022-08-17T10:26:57.858Z,35.70
2022-08-17T10:29:48.876Z,36.30
2022-08-17T10:32:37.460Z,35.40
2022-08-17T10:35:29.338Z,34.60
2022-08-17T10:38:12.102Z,34.40
2022-08-17T10:41:04.584Z,35.00
2022-08-17T10:44:37.311Z,34.70
2022-08-17T10:46:58.223Z,35.40
2022-08-17T10:49:29.479Z,35.20
2022-08-17T10:51:59.978Z,33.90
2022-08-17T10:54:47.787Z,33.40
2022-08-17T10:57:29.890Z,34.10
2022-08-17T11:00:15.701Z,33.90
2022-08-17T11:02:49.869Z,34.60
2022-08-17T11:05:44.238Z,33.60
2022-08-17T11:08:38.553Z,34.20
2022-08-17T11:11:51.008Z,33.10
2022-08-17T11:15:09.935Z,31.50
2022-08-17T11:17:53.965Z,31.20
2022-08-17T11:21:06.254Z,32.10
2022-08-17T11:23:48.991Z,31.60
2022-08-17T11:26:29.742Z,31.50
2022-08-17T11:29:02.170Z,31.10
2022-08-17T11:31:38.776Z,31.30
2022-08-17T11:34:27.216Z,32.70
2022-08-17T11:37:23.529Z,32.10
2022-08-17T11:40:09.949Z,33.10
2022-08-17T11:42:46.605Z,31.60
2022-08-17T11:45:45.181Z,30.40
2022-08-17T11:48:49.475Z,31.00
2022-08-17T11:51:34.117Z,30.90
2022-08-17T11:57:27.023Z,31.90
2022-08-17T11:59:53.872Z,32.40
2022-08-17T12:02:32.878Z,32.70
2022-08-17T12:05:15.367Z,32.80
2022-08-17T12:07:49.411Z,31.90
2022-08-17T12:10:21.656Z,30.00
2022-08-17T12:12:53.148Z,30.00
2022-08-17T12:15:30.126Z,29.90
2022-08-17T12:17:58.941Z,30.10
2022-08-17T12:20:33.018Z,30.80
2022-08-17T12:23:21.403Z,30.20
2022-08-17T12:25:56.718Z,30.20
2022-08-17T12:28:33.773Z,30.20
2022-08-17T12:31:11.807Z,29.10
2022-08-17T12:33:44.102Z,29.30
2022-08-17T12:36:15.736Z,29.20
2022-08-17T12:39:12.878Z,29.70
2022-08-17T12:41:44.572Z,29.80
2022-08-17T12:44:12.258Z,30.40
2022-08-17T12:47:04.814Z,30.10
2022-08-17T12:49:35.621Z,30.20
2022-08-17T12:52:12.581Z,29.00
2022-08-17T12:54:51.494Z,29.50
2022-08-17T12:57:26.541Z,29.40
2022-08-17T13:00:08.302Z,29.00
2022-08-17T13:02:52.209Z,28.70
2022-08-17T13:05:38.025Z,29.90
2022-08-17T13:08:24.571Z,29.20
2022-08-17T13:11:18.415Z,29.00
2022-08-17T13:13:52.464Z,29.10
2022-08-17T13:16:28.094Z,29.50
2022-08-17T13:19:15.638Z,29.20
2022-08-17T13:21:52.444Z,29.00
2022-08-17T13:24:25.088Z,28.10
2022-08-17T13:27:07.861Z,27.90
2022-08-17T13:29:51.521Z,28.50
2022-08-17T13:32:33.498Z,28.40
2022-08-17T13:35:15.407Z,28.40
2022-08-17T13:37:59.567Z,28.10
2022-08-17T13:40:35.583Z,29.10
2022-08-17T13:43:03.405Z,29.70
2022-08-17T13:45:36.203Z,30.70
2022-08-17T13:48:16.032Z,30.80
2022-08-17T13:50:47.548Z,31.00
2022-08-17T13:53:25.112Z,31.10
2022-08-17T13:55:59.424Z,30.70
2022-08-17T13:58:30.492Z,31.10
2022-08-17T14:00:57.766Z,30.70
2022-08-17T14:03:25.129Z,30.60
2022-08-17T14:05:53.003Z,31.30
2022-08-17T14:08:20.919Z,31.70
2022-08-17T14:10:58.334Z,31.80
2022-08-17T14:13:25.183Z,31.40
2022-08-17T14:15:54.543Z,31.40
2022-08-17T14:18:52.022Z,31.00
2022-08-17T14:21:10.716Z,29.60
2022-08-17T14:23:37.977Z,29.20
2022-08-17T14:26:05.604Z,29.20
2022-08-17T14:28:33.043Z,28.80
2022-08-17T14:31:03.372Z,28.30
2022-08-17T14:33:30.207Z,28.60
2022-08-17T14:35:58.150Z,28.10
2022-08-17T14:38:25.258Z,27.70
2022-08-17T14:40:52.681Z,27.40
2022-08-17T14:43:20.916Z,27.00
2022-08-17T14:45:47.801Z,27.20
2022-08-17T14:48:14.652Z,27.30
2022-08-17T14:50:43.154Z,27.20
2022-08-17T14:53:16.464Z,27.10
2022-08-17T14:55:45.809Z,26.70
2022-08-17T14:58:14.096Z,26.20
2022-08-17T15:00:43.058Z,26.40
2022-08-17T15:03:11.536Z,26.30
2022-08-17T15:05:39.419Z,26.50
2022-08-17T15:08:07.125Z,26.10
2022-08-17T15:10:34.404Z,25.80
2022-08-17T15:13:01.727Z,26.10
2022-08-17T15:15:29.546Z,26.30
2022-08-17T15:17:57.053Z,26.10
2022-08-17T15:20:28.085Z,26.90
2022-08-17T15:22:56.172Z,28.00
2022-08-17T15:25:25.783Z,28.80
2022-08-17T15:27:52.973Z,29.20
2022-08-17T15:30:20.654Z,29.60
2022-08-17T15:32:51.417Z,30.20
2022-08-17T15:35:28.052Z,31.80
2022-08-17T15:38:11.636Z,33.20
2022-08-17T15:40:46.525Z,33.90
2022-08-17T15:43:16.937Z,33.70
2022-08-17T15:45:44.156Z,33.80
2022-08-17T15:48:11.474Z,33.50
2022-08-17T15:50:38.473Z,33.50
2022-08-17T15:53:05.452Z,33.40
2022-08-17T15:55:33.763Z,33.40
2022-08-17T15:58:03.752Z,33.50
2022-08-17T16:00:31.103Z,33.90
2022-08-17T16:03:44.761Z,33.60
2022-08-17T16:05:51.655Z,34.00
2022-08-17T16:08:21.299Z,34.60
2022-08-17T16:10:50.334Z,35.20
2022-08-17T16:13:19.105Z,35.60
2022-08-17T16:15:57.142Z,35.70
2022-08-17T16:18:30.983Z,36.10
2022-08-17T16:21:21.264Z,36.10
2022-08-17T16:23:51.457Z,36.20
2022-08-17T16:26:33.099Z,36.30
2022-08-17T16:29:02.204Z,36.60
2022-08-17T16:31:38.777Z,36.70
2022-08-17T16:58:54.114Z,39.20
